createdAt,value
2023-01-23T00:01:42.570Z,89.62
2023-01-23T00:04:13.936Z,89.33
2023-01-23T00:07:52.393Z,90.47
2023-01-23T00:10:20.585Z,90.81
2023-01-23T00:12:53.538Z,91.38
2023-01-23T00:15:21.618Z,91.42
2023-01-23T00:17:49.624Z,91.50
2023-01-23T00:20:17.887Z,91.47
2023-01-23T00:22:45.907Z,91.73
2023-01-23T00:25:13.820Z,91.28
2023-01-23T00:27:41.850Z,91.56
2023-01-23T00:30:11.216Z,90.85
2023-01-23T00:32:39.348Z,91.13
2023-01-23T00:35:07.884Z,91.78
2023-01-23T00:37:35.853Z,92.07
2023-01-23T00:40:04.286Z,91.70
2023-01-23T00:42:32.378Z,92.14
2023-01-23T00:45:01.099Z,92.87
2023-01-23T00:47:28.711Z,93.02
2023-01-23T00:49:57.793Z,94.17
2023-01-23T00:52:26.603Z,93.42
2023-01-23T00:54:55.054Z,93.71
2023-01-23T00:57:23.095Z,93.68
2023-01-23T00:59:51.706Z,93.22
2023-01-23T01:02:19.667Z,93.73
2023-01-23T01:04:47.925Z,93.44
2023-01-23T01:07:15.905Z,94.09
2023-01-23T01:09:43.852Z,94.58
2023-01-23T01:12:12.024Z,94.59
2023-01-23T01:14:39.858Z,94.51
2023-01-23T01:17:10.702Z,94.98
2023-01-23T01:19:38.763Z,95.17
2023-01-23T01:22:06.708Z,94.96
2023-01-23T01:24:34.635Z,94.97
2023-01-23T01:27:02.702Z,95.24
2023-01-23T01:29:30.975Z,94.02
2023-01-23T01:31:58.888Z,93.89
2023-01-23T01:34:26.813Z,93.87
2023-01-23T01:36:54.863Z,94.17
2023-01-23T01:39:22.754Z,93.92
2023-01-23T01:41:51.034Z,94.87
2023-01-23T01:44:22.158Z,95.33
2023-01-23T01:46:51.215Z,94.29
2023-01-23T01:49:26.454Z,94.86
2023-01-23T01:52:03.356Z,95.21
2023-01-23T01:54:45.948Z,96.37
2023-01-23T01:57:43.120Z,96.27
2023-01-23T02:00:17.495Z,97.18
2023-01-23T02:02:50.284Z,97.21
2023-01-23T02:05:24.443Z,97.45
2023-01-23T02:07:57.658Z,98.14
2023-01-23T02:10:25.759Z,98.98
2023-01-23T02:12:53.794Z,99.36
2023-01-23T02:15:22.945Z,98.80
2023-01-23T02:17:54.946Z,99.77
2023-01-23T02:20:28.878Z,99.23
2023-01-23T02:23:20.774Z,98.72
2023-01-23T02:26:01.827Z,99.04
2023-01-23T02:28:45.638Z,98.61
2023-01-23T02:31:16.719Z,98.87
2023-01-23T02:33:51.992Z,98.96
2023-01-23T02:36:22.693Z,99.08
2023-01-23T02:39:10.038Z,98.83
2023-01-23T02:41:47.240Z,98.05
2023-01-23T02:44:25.606Z,99.20
2023-01-23T02:47:01.574Z,99.18
2023-01-23T02:49:30.755Z,99.25
2023-01-23T02:51:58.742Z,99.74
2023-01-23T02:54:26.859Z,99.43
2023-01-23T02:59:46.717Z,98.96
2023-01-23T03:04:57.571Z,98.24
2023-01-23T03:07:28.537Z,97.82
2023-01-23T03:09:58.933Z,97.94
2023-01-23T03:12:36.093Z,97.84
2023-01-23T03:15:06.323Z,97.07
2023-01-23T03:17:37.072Z,96.37
2023-01-23T03:20:07.859Z,97.42
2023-01-23T03:22:37.150Z,98.33
2023-01-23T03:25:05.692Z,97.50
2023-01-23T03:27:36.142Z,98.26
2023-01-23T03:30:14.004Z,98.00
2023-01-23T03:32:46.254Z,98.25
2023-01-23T03:35:20.569Z,98.67
2023-01-23T03:37:52.849Z,98.07
2023-01-23T03:40:42.847Z,98.59
2023-01-23T03:43:15.412Z,99.29
2023-01-23T03:45:48.761Z,99.26
2023-01-23T03:48:21.126Z,99.65
2023-01-23T03:50:49.623Z,100.00
2023-01-23T03:53:21.609Z,99.83
2023-01-23T03:55:50.402Z,100.00
2023-01-23T03:58:19.346Z,99.72
2023-01-23T04:00:49.082Z,99.27
2023-01-23T04:03:17.889Z,99.50
2023-01-23T04:05:46.053Z,99.12
2023-01-23T04:08:14.067Z,99.09
2023-01-23T04:10:43.033Z,98.66
2023-01-23T04:13:24.348Z,98.00
2023-01-23T04:15:54.805Z,98.51
2023-01-23T04:21:05.375Z,97.43
2023-01-23T04:23:35.060Z,96.22
2023-01-23T04:26:04.363Z,95.87
2023-01-23T04:28:32.754Z,95.65
2023-01-23T04:31:01.638Z,95.40
2023-01-23T04:33:32.296Z,95.56
2023-01-23T04:36:04.833Z,95.66
2023-01-23T04:38:34.309Z,94.96
2023-01-23T04:41:25.087Z,96.35
2023-01-23T04:44:20.503Z,96.48
2023-01-23T04:47:14.400Z,97.35
2023-01-23T04:49:43.730Z,97.03
2023-01-23T04:52:11.916Z,96.78
2023-01-23T04:54:45.081Z,96.90
2023-01-23T04:57:13.133Z,96.96
2023-01-23T04:59:42.242Z,96.88
2023-01-23T05:02:10.324Z,96.59
2023-01-23T05:04:42.853Z,96.81
2023-01-23T05:07:12.589Z,96.76
2023-01-23T05:09:45.777Z,96.61
2023-01-23T05:12:16.230Z,96.16
2023-01-23T05:14:44.676Z,96.04
2023-01-23T05:17:13.551Z,95.23
2023-01-23T05:19:52.325Z,95.03
2023-01-23T05:22:20.590Z,94.61
2023-01-23T05:24:49.371Z,93.21
2023-01-23T05:27:17.809Z,93.25
2023-01-23T05:29:48.653Z,93.61
2023-01-23T05:32:21.832Z,93.16
2023-01-23T05:35:09.501Z,93.23
2023-01-23T05:37:39.330Z,93.08
2023-01-23T05:40:09.370Z,93.08
2023-01-23T05:42:55.978Z,93.11
2023-01-23T05:45:43.227Z,93.67
2023-01-23T05:48:18.557Z,93.22
2023-01-23T05:50:47.475Z,92.61
2023-01-23T05:53:15.542Z,91.92
2023-01-23T05:55:43.579Z,91.03
2023-01-23T05:58:15.908Z,91.46
2023-01-23T06:01:22.814Z,91.21
2023-01-23T06:04:19.951Z,91.40
2023-01-23T06:06:55.708Z,91.85
2023-01-23T06:09:24.896Z,92.56
2023-01-23T06:11:52.876Z,92.87
2023-01-23T06:14:21.467Z,92.80
2023-01-23T06:16:49.575Z,93.02
2023-01-23T06:19:18.108Z,93.76
2023-01-23T06:21:46.733Z,92.90
2023-01-23T06:24:14.796Z,93.02
2023-01-23T06:26:42.815Z,93.52
2023-01-23T06:29:10.846Z,94.53
2023-01-23T06:31:39.422Z,95.46
2023-01-23T06:34:09.014Z,96.40
2023-01-23T06:36:43.381Z,95.72
2023-01-23T06:39:14.126Z,96.51
2023-01-23T06:41:43.538Z,96.45
2023-01-23T06:44:17.411Z,96.46
2023-01-23T06:46:45.661Z,96.53
2023-01-23T06:49:14.237Z,97.01
2023-01-23T06:51:42.195Z,96.97
2023-01-23T06:54:12.364Z,96.88
2023-01-23T06:56:40.954Z,97.48
2023-01-23T06:59:10.602Z,96.74
2023-01-23T07:01:38.792Z,97.90
2023-01-23T07:04:39.041Z,98.94
2023-01-23T07:07:07.123Z,99.72
2023-01-23T07:09:35.455Z,100.00
2023-01-23T07:12:10.827Z,100.00
2023-01-23T07:14:43.327Z,100.00
2023-01-23T07:17:13.424Z,100.00
2023-01-23T07:19:44.373Z,100.00
2023-01-23T07:22:22.103Z,99.76
2023-01-23T07:24:50.192Z,100.00
2023-01-23T07:27:18.171Z,99.99
2023-01-23T07:29:46.196Z,99.75
2023-01-23T07:32:14.244Z,99.82
2023-01-23T07:34:42.150Z,99.62
2023-01-23T07:37:10.085Z,98.72
2023-01-23T07:39:38.023Z,98.59
2023-01-23T07:42:06.177Z,99.04
2023-01-23T07:44:34.131Z,98.02
2023-01-23T07:47:04.519Z,97.18
2023-01-23T07:49:32.655Z,98.30
2023-01-23T07:52:00.583Z,98.21
2023-01-23T07:54:28.715Z,97.83
2023-01-23T07:56:56.552Z,97.57
2023-01-23T07:59:24.690Z,97.52
2023-01-23T08:01:53.026Z,97.49
2023-01-23T08:04:21.189Z,97.34
2023-01-23T08:06:49.472Z,96.59
2023-01-23T08:09:24.769Z,95.38
2023-01-23T08:11:52.914Z,96.05
2023-01-23T08:14:20.918Z,96.63
2023-01-23T08:16:50.947Z,97.21
2023-01-23T08:19:20.034Z,96.33
2023-01-23T08:21:49.918Z,95.77
2023-01-23T08:24:17.951Z,94.86
2023-01-23T08:26:46.329Z,93.62
2023-01-23T08:29:14.299Z,94.65
2023-01-23T08:31:42.506Z,96.21
2023-01-23T08:34:10.916Z,95.29
2023-01-23T08:36:38.974Z,95.93
2023-01-23T08:39:07.419Z,96.66
2023-01-23T08:41:35.489Z,95.78
2023-01-23T08:44:04.447Z,95.18
2023-01-23T08:46:32.560Z,95.78
2023-01-23T08:49:00.969Z,96.18
2023-01-23T08:51:29.104Z,95.45
2023-01-23T08:53:57.512Z,95.38
2023-01-23T08:56:25.901Z,95.58
2023-01-23T08:58:53.940Z,96.09
2023-01-23T09:01:26.166Z,95.67
2023-01-23T09:03:54.243Z,95.95
2023-01-23T09:06:23.360Z,95.77
2023-01-23T09:08:51.510Z,96.15
2023-01-23T09:11:20.063Z,96.05
2023-01-23T09:13:47.999Z,96.98
2023-01-23T09:16:17.152Z,95.98
2023-01-23T09:18:45.184Z,95.34
2023-01-23T09:21:16.026Z,96.33
2023-01-23T09:23:43.980Z,95.99
2023-01-23T09:26:14.135Z,96.78
2023-01-23T09:28:43.174Z,95.21
2023-01-23T09:31:13.755Z,95.75
2023-01-23T09:33:42.263Z,94.54
2023-01-23T09:36:11.015Z,95.49
2023-01-23T09:38:38.988Z,95.02
2023-01-23T09:41:20.399Z,94.65
2023-01-23T09:43:54.020Z,95.61
2023-01-23T09:46:43.944Z,95.29
2023-01-23T09:49:31.130Z,95.74
2023-01-23T09:52:06.000Z,95.44
2023-01-23T09:54:50.276Z,95.94
2023-01-23T09:57:39.584Z,95.59
2023-01-23T10:00:32.175Z,94.83
2023-01-23T10:03:11.733Z,95.21
2023-01-23T10:05:39.663Z,95.21
2023-01-23T10:08:29.774Z,95.92
2023-01-23T10:11:04.453Z,94.87
2023-01-23T10:14:36.627Z,96.15
2023-01-23T10:17:25.753Z,95.79
2023-01-23T10:20:27.639Z,95.19
2023-01-23T10:23:11.865Z,94.57
2023-01-23T10:25:41.416Z,96.63
2023-01-23T10:28:27.087Z,95.13
2023-01-23T10:31:04.250Z,96.26
2023-01-23T10:33:41.404Z,96.34
2023-01-23T10:36:24.017Z,96.41
2023-01-23T10:38:59.194Z,97.38
2023-01-23T10:41:27.349Z,96.14
2023-01-23T10:43:57.759Z,95.88
2023-01-23T10:46:51.247Z,96.03
2023-01-23T10:49:33.082Z,95.74
2023-01-23T10:52:02.009Z,95.41
2023-01-23T10:54:32.579Z,96.54
2023-01-23T10:57:03.821Z,96.95
2023-01-23T10:59:38.858Z,96.28
2023-01-23T11:02:16.405Z,96.02
2023-01-23T11:07:31.860Z,94.34
2023-01-23T11:10:07.937Z,95.40
2023-01-23T11:12:51.060Z,96.26
2023-01-23T11:15:31.568Z,96.82
2023-01-23T11:18:01.145Z,97.47
2023-01-23T11:20:42.977Z,97.67
2023-01-23T11:23:13.731Z,97.84
2023-01-23T11:25:52.647Z,97.92
2023-01-23T11:28:34.117Z,97.42
2023-01-23T11:31:19.387Z,96.99
2023-01-23T11:34:07.581Z,97.66
2023-01-23T11:36:48.985Z,98.81
2023-01-23T11:39:44.938Z,98.49
2023-01-23T11:42:14.281Z,98.67
2023-01-23T11:44:46.383Z,98.63
2023-01-23T11:47:46.146Z,97.55
2023-01-23T11:50:49.999Z,98.85
2023-01-23T11:53:43.173Z,99.04
2023-01-23T11:56:32.946Z,98.33
2023-01-23T11:59:29.929Z,98.51
2023-01-23T12:02:03.389Z,98.88
2023-01-23T12:05:06.095Z,98.99
2023-01-23T12:07:58.945Z,98.74
2023-01-23T12:10:46.644Z,98.16
2023-01-23T12:13:34.498Z,97.51
2023-01-23T12:16:11.277Z,97.26
2023-01-23T12:19:06.859Z,96.59
2023-01-23T12:22:08.605Z,96.60
2023-01-23T12:24:55.331Z,97.85
2023-01-23T12:27:35.384Z,97.32
2023-01-23T12:30:24.897Z,98.13
2023-01-23T12:32:55.836Z,97.94
2023-01-23T12:35:51.262Z,98.41
2023-01-23T12:38:30.801Z,97.95
2023-01-23T12:41:13.776Z,96.97
2023-01-23T12:44:05.396Z,98.30
2023-01-23T12:46:42.197Z,98.48
2023-01-23T12:49:34.356Z,99.30
2023-01-23T12:52:20.266Z,99.85
2023-01-23T12:55:07.806Z,99.87
2023-01-23T12:57:58.952Z,100.00
2023-01-23T13:01:01.823Z,99.33
2023-01-23T13:03:46.829Z,100.00
2023-01-23T13:06:59.740Z,99.68
2023-01-23T13:09:27.606Z,99.31
2023-01-23T13:12:34.431Z,99.12
2023-01-23T13:15:22.595Z,98.72
2023-01-23T13:17:59.011Z,99.17
2023-01-23T13:21:11.051Z,98.91
2023-01-23T13:23:39.111Z,98.30
2023-01-23T13:26:15.968Z,97.94
2023-01-23T13:28:48.261Z,98.04
2023-01-23T13:31:42.466Z,98.66
2023-01-23T13:34:16.482Z,98.32
2023-01-23T13:37:30.148Z,97.77
2023-01-23T13:40:17.123Z,98.49
2023-01-23T13:42:45.563Z,98.38
2023-01-23T13:45:16.309Z,99.04
2023-01-23T14:22:56.781Z,98.33
2023-01-23T14:25:25.878Z,98.61
2023-01-23T14:28:05.561Z,98.48
2023-01-23T14:30:33.774Z,98.56
2023-01-23T14:33:01.689Z,98.37
2023-01-23T14:35:31.984Z,98.10
2023-01-23T14:38:02.629Z,97.82
2023-01-23T14:40:43.176Z,97.17
2023-01-23T14:43:23.310Z,96.85
2023-01-23T14:46:01.428Z,96.73
2023-01-23T14:48:33.884Z,96.07
2023-01-23T14:51:05.536Z,95.51
2023-01-23T14:53:33.725Z,95.78
2023-01-23T14:56:02.325Z,96.19
2023-01-23T14:58:31.081Z,95.67
2023-01-23T15:01:01.964Z,95.83
2023-01-23T15:03:41.369Z,95.32
2023-01-23T15:06:16.509Z,95.79
2023-01-23T15:08:45.462Z,96.69
2023-01-23T15:11:14.264Z,96.21
2023-01-23T15:13:54.994Z,97.20
2023-01-23T15:16:31.943Z,96.89
2023-01-23T15:19:21.374Z,96.09
2023-01-23T15:21:49.949Z,96.08
2023-01-23T15:24:29.270Z,96.96
2023-01-23T15:26:58.917Z,97.81
2023-01-23T15:29:27.546Z,97.52
2023-01-23T15:31:56.815Z,97.13
2023-01-23T15:34:36.281Z,97.16
2023-01-23T15:37:25.661Z,96.73
2023-01-23T15:40:04.392Z,96.31
2023-01-23T15:42:34.373Z,96.16
2023-01-23T15:45:04.033Z,96.84
2023-01-23T15:47:34.962Z,96.17
2023-01-23T15:50:03.376Z,96.12
2023-01-23T15:52:46.797Z,96.63
2023-01-23T15:55:16.401Z,96.17
2023-01-23T15:57:49.756Z,95.93
2023-01-23T16:00:31.178Z,96.51
2023-01-23T16:05:42.260Z,97.28
2023-01-23T16:08:23.246Z,97.52
2023-01-23T16:10:54.256Z,96.80
2023-01-23T16:13:22.860Z,96.23
2023-01-23T16:15:51.823Z,96.27
2023-01-23T16:18:21.100Z,96.19
2023-01-23T16:23:46.134Z,97.06
2023-01-23T16:26:21.893Z,96.86
2023-01-23T16:28:50.228Z,96.53
2023-01-23T16:34:01.412Z,95.89
2023-01-23T16:36:30.323Z,95.74
2023-01-23T16:38:58.792Z,95.70
2023-01-23T16:41:27.387Z,95.38
2023-01-23T16:46:40.615Z,94.68
2023-01-23T16:49:12.213Z,94.69
2023-01-23T16:51:45.001Z,95.02
2023-01-23T16:54:21.712Z,95.57
2023-01-23T16:56:53.152Z,95.79
2023-01-23T17:02:23.439Z,95.49
2023-01-23T17:05:01.939Z,95.27
2023-01-23T17:10:24.051Z,95.62
2023-01-23T17:12:57.374Z,95.54
2023-01-23T17:15:30.427Z,94.98
2023-01-23T17:18:04.260Z,95.28
2023-01-23T17:20:39.882Z,96.31
2023-01-23T17:23:11.859Z,96.44
2023-01-23T17:25:59.856Z,96.93
2023-01-23T17:28:29.999Z,96.76
2023-01-23T17:31:01.026Z,96.74
2023-01-23T17:33:32.365Z,97.24
2023-01-23T17:36:03.727Z,96.69
2023-01-23T17:38:32.446Z,96.19
2023-01-23T17:41:01.713Z,96.76
2023-01-23T17:43:30.123Z,96.21
2023-01-23T17:45:58.876Z,96.49
2023-01-23T17:48:31.755Z,96.58
2023-01-23T17:51:01.916Z,96.68
2023-01-23T17:53:32.549Z,96.57
2023-01-23T17:56:00.870Z,96.38
2023-01-23T17:58:29.509Z,96.07
2023-01-23T18:00:58.419Z,96.78
2023-01-23T18:03:27.095Z,96.87
2023-01-23T18:05:55.613Z,95.64
2023-01-23T18:08:24.388Z,96.29
2023-01-23T18:10:55.734Z,96.79
2023-01-23T18:13:48.372Z,96.92
2023-01-23T18:16:30.896Z,96.98
2023-01-23T18:19:05.216Z,97.08
2023-01-23T18:21:34.004Z,97.82
2023-01-23T18:24:03.141Z,97.60
2023-01-23T18:26:34.418Z,97.46
2023-01-23T18:29:06.825Z,96.33
2023-01-23T18:31:46.899Z,96.38
2023-01-23T18:34:33.805Z,96.45
2023-01-23T18:37:24.191Z,95.46
2023-01-23T18:40:05.070Z,95.87
2023-01-23T18:43:06.060Z,96.49
2023-01-23T18:45:45.235Z,97.01
2023-01-23T18:48:25.066Z,97.25
2023-01-23T18:53:49.454Z,95.76
2023-01-23T18:59:27.177Z,95.00
2023-01-23T19:02:07.647Z,95.53
2023-01-23T19:07:29.585Z,94.01
2023-01-23T19:10:03.989Z,93.95
2023-01-23T19:12:52.861Z,93.13
2023-01-23T19:18:48.197Z,93.61
2023-01-23T19:24:11.943Z,94.01
2023-01-23T19:26:43.072Z,93.32
2023-01-23T19:29:22.762Z,92.55
2023-01-23T19:32:04.268Z,93.65
2023-01-23T19:34:35.081Z,93.62
2023-01-23T19:39:46.060Z,93.55
2023-01-23T19:42:15.658Z,93.73
2023-01-23T19:44:45.261Z,93.38
2023-01-23T19:47:14.298Z,94.14
2023-01-23T19:52:24.698Z,94.37
2023-01-23T19:54:56.466Z,94.33
2023-01-23T19:57:25.378Z,94.42
2023-01-23T19:59:55.916Z,94.50
2023-01-23T20:02:26.054Z,94.46
2023-01-23T20:04:57.533Z,94.53
2023-01-23T20:07:26.166Z,94.08
2023-01-23T20:09:54.871Z,94.07
2023-01-23T20:12:24.879Z,93.71
2023-01-23T20:14:53.358Z,94.06
2023-01-23T20:17:21.984Z,93.90
2023-01-23T20:19:52.075Z,94.15
2023-01-23T20:22:20.552Z,94.29
2023-01-23T20:24:49.673Z,93.97
2023-01-23T20:27:20.555Z,93.70
2023-01-23T20:29:52.446Z,94.20
2023-01-23T20:32:21.135Z,94.26
2023-01-23T20:34:49.453Z,94.21
2023-01-23T20:37:18.380Z,93.29
2023-01-23T20:39:46.949Z,93.70
2023-01-23T20:42:15.338Z,94.37
2023-01-23T20:44:44.148Z,94.69
2023-01-23T20:47:12.627Z,95.08
2023-01-23T20:49:41.819Z,95.08
2023-01-23T20:52:33.594Z,94.71
2023-01-23T20:55:01.980Z,95.38
2023-01-23T20:57:55.422Z,95.91
2023-01-23T21:00:24.303Z,95.82
2023-01-23T21:02:53.565Z,96.08
2023-01-23T21:05:31.442Z,96.28
2023-01-23T21:08:01.106Z,95.03
2023-01-23T21:10:30.205Z,94.83
2023-01-23T21:12:58.364Z,94.64
2023-01-23T21:15:26.765Z,94.90
2023-01-23T21:17:55.026Z,94.86
2023-01-23T21:20:32.686Z,94.69
2023-01-23T21:23:05.589Z,94.16
2023-01-23T21:25:45.845Z,94.31
2023-01-23T21:28:15.646Z,94.24
2023-01-23T21:30:44.521Z,95.05
2023-01-23T21:33:14.025Z,94.61
2023-01-23T21:35:43.740Z,94.44
2023-01-23T21:38:21.405Z,94.47
2023-01-23T21:40:52.695Z,94.09
2023-01-23T21:43:21.325Z,94.33
2023-01-23T21:45:49.498Z,93.75
2023-01-23T21:48:17.635Z,94.31
2023-01-23T21:50:45.598Z,94.29
2023-01-23T21:53:13.568Z,93.56
2023-01-23T21:55:41.486Z,94.00
2023-01-23T21:58:09.371Z,94.44
2023-01-23T22:00:55.710Z,94.75
2023-01-23T22:03:23.679Z,94.37
2023-01-23T22:05:51.684Z,95.06
2023-01-23T22:08:19.709Z,95.13
2023-01-23T22:10:47.783Z,95.56
2023-01-23T22:13:15.614Z,94.75
2023-01-23T22:15:43.709Z,94.81
2023-01-23T22:18:12.469Z,94.11
2023-01-23T22:20:40.433Z,94.47
2023-01-23T22:23:08.376Z,93.96
2023-01-23T22:25:36.351Z,93.88
2023-01-23T22:28:04.525Z,94.36
2023-01-23T22:30:32.404Z,94.09
2023-01-23T22:33:00.463Z,92.54
2023-01-23T22:35:29.028Z,92.45
2023-01-23T22:37:57.534Z,93.51
2023-01-23T22:40:25.432Z,93.80
2023-01-23T22:42:53.671Z,93.42
2023-01-23T22:45:21.828Z,93.02
2023-01-23T22:47:49.953Z,93.07
2023-01-23T22:50:18.296Z,92.51
2023-01-23T22:52:46.286Z,93.14
2023-01-23T22:55:14.536Z,93.13
2023-01-23T22:57:43.108Z,92.72
2023-01-23T23:00:16.483Z,92.06
2023-01-23T23:02:44.638Z,92.39
2023-01-23T23:05:12.582Z,92.07
2023-01-23T23:07:40.875Z,91.33
2023-01-23T23:10:11.458Z,91.21
2023-01-23T23:12:39.371Z,90.84
2023-01-23T23:15:07.846Z,90.46
2023-01-23T23:17:35.714Z,89.76
2023-01-23T23:20:03.873Z,90.39
2023-01-23T23:22:31.988Z,90.55
2023-01-23T23:24:59.944Z,90.74
2023-01-23T23:27:27.953Z,90.11
2023-01-23T23:29:56.030Z,89.82
2023-01-23T23:32:23.962Z,89.66
2023-01-23T23:34:51.984Z,89.37
2023-01-23T23:37:19.975Z,90.27
2023-01-23T23:39:47.998Z,90.72
2023-01-23T23:42:15.835Z,91.34
2023-01-23T23:44:43.656Z,90.64
2023-01-23T23:47:11.592Z,90.21
2023-01-23T23:49:39.443Z,90.96
2023-01-23T23:52:07.265Z,92.37
2023-01-23T23:54:35.234Z,91.85
2023-01-23T23:57:03.063Z,90.32
2023-01-23T23:59:30.930Z,90.36
